createdAt,value
2022-10-17T00:02:02.969Z,17.53
2022-10-17T00:07:11.293Z,17.56
2022-10-17T00:12:25.272Z,17.49
2022-10-17T00:17:42.913Z,17.50
2022-10-17T00:22:50.245Z,17.51
2022-10-17T00:28:01.181Z,17.56
2022-10-17T00:33:12.298Z,17.57
2022-10-17T00:38:16.870Z,17.57
2022-10-17T00:43:26.946Z,17.55
2022-10-17T00:48:36.398Z,17.58
2022-10-17T00:53:45.376Z,17.56
2022-10-17T00:58:55.449Z,17.53
2022-10-17T01:04:05.383Z,17.50
2022-10-17T01:09:17.410Z,17.46
2022-10-17T01:14:31.891Z,17.46
2022-10-17T01:20:07.360Z,17.45
2022-10-17T01:25:37.434Z,17.40
2022-10-17T01:31:13.398Z,17.37
2022-10-17T01:36:34.947Z,17.33
2022-10-17T01:41:44.836Z,17.31
2022-10-17T01:47:00.166Z,17.30
2022-10-17T01:52:16.020Z,17.27
2022-10-17T01:57:32.953Z,17.25
2022-10-17T02:02:51.636Z,17.23
2022-10-17T02:08:01.487Z,17.22
2022-10-17T02:13:15.786Z,17.23
2022-10-17T02:18:48.677Z,17.21
2022-10-17T02:24:15.940Z,17.19
2022-10-17T02:29:30.317Z,17.20
2022-10-17T02:34:42.664Z,17.26
2022-10-17T02:39:56.213Z,17.34
2022-10-17T02:45:06.656Z,17.41
2022-10-17T02:50:26.356Z,17.47
2022-10-17T02:55:35.674Z,17.52
2022-10-17T03:00:46.019Z,17.58
2022-10-17T03:05:56.262Z,17.65
2022-10-17T03:11:05.645Z,17.76
2022-10-17T03:16:20.090Z,17.79
2022-10-17T03:21:31.727Z,17.81
2022-10-17T03:26:51.192Z,17.79
2022-10-17T03:32:00.025Z,17.76
2022-10-17T03:37:13.081Z,17.74
2022-10-17T03:42:22.231Z,17.74
2022-10-17T03:47:31.687Z,17.69
2022-10-17T03:52:59.155Z,17.68
2022-10-17T03:58:13.312Z,17.68
2022-10-17T04:09:08.894Z,17.61
2022-10-17T04:14:22.343Z,17.65
2022-10-17T04:19:33.252Z,17.68
2022-10-17T04:24:44.847Z,17.65
2022-10-17T04:35:29.897Z,17.58
2022-10-17T04:40:38.634Z,17.56
2022-10-17T04:45:58.832Z,17.56
2022-10-17T04:51:06.061Z,17.54
2022-10-17T04:56:15.738Z,17.56
2022-10-17T05:06:53.037Z,17.52
2022-10-17T05:11:58.679Z,17.46
2022-10-17T05:17:07.209Z,17.40
2022-10-17T05:22:14.020Z,17.35
2022-10-17T05:27:21.715Z,17.32
2022-10-17T05:32:32.602Z,17.28
2022-10-17T05:37:46.894Z,17.24
2022-10-17T05:42:55.321Z,17.23
2022-10-17T05:48:21.575Z,17.26
2022-10-17T05:53:26.926Z,17.25
2022-10-17T05:58:52.315Z,17.28
2022-10-17T06:04:29.165Z,17.33
2022-10-17T06:09:48.869Z,17.35
2022-10-17T06:15:01.604Z,17.38
2022-10-17T06:20:31.925Z,17.46
2022-10-17T06:25:37.490Z,17.54
2022-10-17T06:30:43.461Z,17.67
2022-10-17T06:35:58.883Z,17.82
2022-10-17T06:41:19.777Z,17.95
2022-10-17T06:46:27.018Z,18.08
2022-10-17T06:51:34.483Z,18.20
2022-10-17T06:56:41.323Z,18.32
2022-10-17T07:07:14.734Z,18.70
2022-10-17T07:12:24.643Z,18.89
2022-10-17T07:17:31.485Z,19.26
2022-10-17T07:22:44.132Z,19.66
2022-10-17T07:27:53.094Z,20.34
2022-10-17T07:33:10.843Z,20.36
2022-10-17T07:38:18.645Z,20.28
2022-10-17T07:43:29.173Z,20.38
2022-10-17T07:48:41.380Z,20.49
2022-10-17T07:54:02.354Z,20.49
2022-10-17T07:59:17.003Z,20.56
2022-10-17T08:04:26.045Z,20.57
2022-10-17T08:09:46.931Z,20.54
2022-10-17T08:15:01.851Z,20.53
2022-10-17T08:20:13.649Z,20.53
2022-10-17T08:25:26.556Z,20.58
2022-10-17T08:30:33.555Z,20.72
2022-10-17T08:35:48.402Z,20.84
2022-10-17T08:40:59.756Z,20.98
2022-10-17T08:46:44.665Z,21.07
2022-10-17T08:52:11.354Z,21.20
2022-10-17T08:57:33.689Z,21.33
2022-10-17T09:02:53.557Z,21.49
2022-10-17T09:08:07.705Z,21.63
2022-10-17T09:13:25.675Z,21.72
2022-10-17T09:18:35.538Z,21.88
2022-10-17T09:24:08.984Z,21.91
2022-10-17T09:29:34.158Z,22.06
2022-10-17T09:34:51.976Z,22.33
2022-10-17T09:39:57.251Z,22.54
2022-10-17T09:45:40.739Z,22.74
2022-10-17T09:51:14.593Z,22.92
2022-10-17T09:56:32.771Z,23.18
2022-10-17T10:01:42.563Z,23.39
2022-10-17T10:07:29.118Z,23.63
2022-10-17T10:13:10.799Z,23.89
2022-10-17T10:18:37.073Z,24.10
2022-10-17T10:23:47.047Z,24.25
2022-10-17T10:29:08.717Z,24.48
2022-10-17T10:34:37.490Z,24.42
2022-10-17T10:39:54.190Z,24.44
2022-10-17T10:45:23.637Z,24.47
2022-10-17T10:50:55.406Z,24.63
2022-10-17T10:56:13.553Z,24.70
2022-10-17T11:01:32.694Z,24.74
2022-10-17T11:07:07.383Z,24.88
2022-10-17T11:12:20.245Z,25.10
2022-10-17T11:17:41.592Z,25.27
2022-10-17T11:23:04.135Z,25.37
2022-10-17T11:28:22.472Z,25.44
2022-10-17T11:33:38.965Z,25.57
2022-10-17T11:38:53.412Z,25.69
2022-10-17T11:44:03.198Z,25.78
2022-10-17T11:49:20.577Z,25.83
2022-10-17T11:54:42.232Z,25.92
2022-10-17T12:00:28.661Z,26.05
2022-10-17T12:05:48.610Z,26.09
2022-10-17T12:11:05.462Z,26.13
2022-10-17T12:16:46.101Z,26.18
2022-10-17T12:22:00.981Z,26.16
2022-10-17T12:27:32.810Z,26.21
2022-10-17T12:33:07.036Z,26.17
2022-10-17T12:38:30.990Z,26.21
2022-10-17T12:44:34.911Z,26.32
2022-10-17T12:49:53.104Z,26.35
2022-10-17T12:55:14.366Z,26.40
2022-10-17T13:00:33.520Z,26.42
2022-10-17T13:05:50.101Z,26.42
2022-10-17T13:11:16.632Z,26.43
2022-10-17T13:16:39.191Z,26.50
2022-10-17T13:21:59.726Z,26.47
2022-10-17T13:27:25.226Z,26.42
2022-10-17T13:32:47.026Z,26.45
2022-10-17T13:37:56.380Z,26.38
2022-10-17T13:43:10.194Z,26.39
2022-10-17T13:48:38.886Z,26.36
2022-10-17T13:53:45.798Z,26.31
2022-10-17T13:58:57.717Z,26.29
2022-10-17T14:04:11.663Z,26.25
2022-10-17T14:09:30.483Z,26.22
2022-10-17T14:15:10.803Z,26.24
2022-10-17T14:26:30.126Z,26.17
2022-10-17T14:31:42.093Z,26.16
2022-10-17T14:36:54.942Z,26.14
2022-10-17T14:42:04.651Z,26.11
2022-10-17T14:47:42.192Z,26.10
2022-10-17T14:53:08.567Z,26.05
2022-10-17T14:58:33.870Z,25.98
2022-10-17T15:03:45.704Z,25.91
2022-10-17T15:08:59.694Z,25.85
2022-10-17T15:14:08.667Z,25.77
2022-10-17T15:19:20.906Z,25.66
2022-10-17T15:24:31.307Z,25.58
2022-10-17T15:29:39.787Z,25.47
2022-10-17T15:34:48.976Z,25.38
2022-10-17T15:40:00.770Z,25.25
2022-10-17T15:45:06.386Z,25.14
2022-10-17T15:50:17.254Z,25.03
2022-10-17T15:55:33.383Z,24.89
2022-10-17T16:00:54.952Z,24.69
2022-10-17T16:06:16.400Z,24.48
2022-10-17T16:11:39.748Z,24.21
2022-10-17T16:16:49.007Z,24.00
2022-10-17T16:22:07.050Z,23.80
2022-10-17T16:27:26.062Z,23.60
2022-10-17T16:32:34.959Z,23.38
2022-10-17T16:37:49.583Z,23.20
2022-10-17T16:43:05.977Z,23.02
2022-10-17T16:48:29.744Z,22.83
2022-10-17T16:53:47.800Z,22.62
2022-10-17T16:58:56.488Z,22.44
2022-10-17T17:04:16.393Z,22.27
2022-10-17T17:09:38.249Z,22.11
2022-10-17T17:14:46.338Z,21.95
2022-10-17T17:19:57.672Z,21.78
2022-10-17T17:25:14.693Z,21.64
2022-10-17T17:30:21.367Z,21.50
2022-10-17T17:35:27.396Z,21.42
2022-10-17T17:40:34.939Z,21.33
2022-10-17T17:45:47.187Z,21.22
2022-10-17T17:50:57.031Z,21.08
2022-10-17T17:56:13.746Z,20.96
2022-10-17T18:01:24.489Z,20.84
2022-10-17T18:06:35.756Z,20.75
2022-10-17T18:11:45.807Z,20.65
2022-10-17T18:17:02.726Z,20.60
2022-10-17T18:22:10.216Z,20.53
2022-10-17T18:27:20.290Z,20.39
2022-10-17T18:32:37.691Z,20.31
2022-10-17T18:37:47.450Z,20.21
2022-10-17T18:43:00.876Z,20.11
2022-10-17T18:48:09.807Z,20.01
2022-10-17T18:53:16.710Z,19.90
2022-10-17T18:58:26.526Z,19.82
2022-10-17T19:03:34.537Z,19.74
2022-10-17T19:08:41.891Z,19.68
2022-10-17T19:14:03.343Z,19.68
2022-10-17T19:19:14.415Z,19.59
2022-10-17T19:24:36.011Z,19.51
2022-10-17T19:29:47.656Z,19.42
2022-10-17T19:34:55.871Z,19.36
2022-10-17T19:40:00.592Z,19.29
2022-10-17T19:45:05.246Z,19.24
2022-10-17T19:50:30.067Z,19.17
2022-10-17T19:55:53.239Z,19.09
2022-10-17T20:01:04.560Z,19.02
2022-10-17T20:06:14.778Z,18.95
2022-10-17T20:11:23.250Z,18.89
2022-10-17T20:16:31.700Z,18.85
2022-10-17T20:21:41.787Z,18.80
2022-10-17T20:26:54.517Z,18.80
2022-10-17T20:32:03.850Z,18.76
2022-10-17T20:37:16.870Z,18.72
2022-10-17T20:42:24.285Z,18.69
2022-10-17T20:47:47.107Z,18.65
2022-10-17T20:53:24.524Z,18.67
2022-10-17T20:58:25.097Z,18.62
2022-10-17T21:03:32.229Z,18.61
2022-10-17T21:09:07.268Z,18.56
2022-10-17T21:14:37.346Z,18.51
2022-10-17T21:20:08.998Z,18.49
2022-10-17T21:25:34.332Z,18.47
2022-10-17T21:30:59.692Z,18.47
2022-10-17T21:36:28.298Z,18.46
2022-10-17T21:42:06.095Z,18.47
2022-10-17T21:47:32.194Z,18.46
2022-10-17T21:53:07.163Z,18.42
2022-10-17T21:58:34.629Z,18.37
2022-10-17T22:04:04.645Z,18.34
2022-10-17T22:09:36.265Z,18.32
2022-10-17T22:15:04.308Z,18.30
2022-10-17T22:20:28.838Z,18.28
2022-10-17T22:25:56.833Z,18.24
2022-10-17T22:31:32.916Z,18.14
2022-10-17T22:36:56.910Z,18.10
2022-10-17T22:42:25.621Z,18.08
2022-10-17T22:48:02.853Z,18.02
2022-10-17T22:53:35.308Z,17.94
2022-10-17T22:58:59.215Z,17.88
2022-10-17T23:04:31.409Z,17.85
2022-10-17T23:10:10.029Z,17.79
2022-10-17T23:15:38.535Z,17.75
2022-10-17T23:21:11.383Z,17.71
2022-10-17T23:26:42.091Z,17.70
2022-10-17T23:32:11.696Z,17.66
2022-10-17T23:37:36.971Z,17.60
2022-10-17T23:43:16.891Z,17.54
2022-10-17T23:48:39.703Z,17.47
2022-10-17T23:54:16.832Z,17.41
2022-10-17T23:59:40.860Z,17.38
